Time;durP1;ratioP1;P1;durP2;ratioP2;P2;SDS_P1;SDS_P2;PMS_P1;PMS_P2;Temp;Humidity;BMP_temperature;BMP_pressure;BME280_temperature;BME280_humidity;BME280_pressure;Samples;Min_cycle;Max_cycle;Signal;HPM_P1;HPM_P2
2023/10/03 00:00:28;;;;;;;41.85;22.13;;;17.80;99.90;;;;;;5067051;28;20036;-68
2023/10/03 00:02:58;;;;;;;43.35;23.05;;;17.80;99.90;;;;;;5068995;28;20084;-68
2023/10/03 00:05:28;;;;;;;43.17;22.10;;;17.80;99.90;;;;;;5071456;28;20099;-69
2023/10/03 00:07:55;;;;;;;38.60;22.13;;;17.80;99.90;;;;;;5070369;28;20041;-68
2023/10/03 00:10:22;;;;;;;41.40;21.73;;;17.80;99.90;;;;;;5073495;28;20561;-68
2023/10/03 00:12:50;;;;;;;39.30;20.92;;;17.80;99.90;;;;;;5063303;28;20511;-68
2023/10/03 00:15:28;;;;;;;42.05;22.52;;;17.70;99.90;;;;;;5062312;28;20052;-68
2023/10/03 00:17:54;;;;;;;37.55;20.30;;;17.80;99.90;;;;;;5060675;28;20125;-68
2023/10/03 00:20:22;;;;;;;41.55;20.75;;;17.80;99.90;;;;;;5069388;28;20050;-68
2023/10/03 00:22:49;;;;;;;40.10;20.27;;;17.80;99.90;;;;;;5066321;28;20044;-68
2023/10/03 00:25:18;;;;;;;37.70;19.85;;;17.80;99.90;;;;;;5064569;28;20044;-68
2023/10/03 00:27:49;;;;;;;37.60;19.63;;;17.80;99.90;;;;;;5059607;28;20040;-68
2023/10/03 00:30:16;;;;;;;37.88;20.05;;;17.80;99.90;;;;;;5064567;28;20040;-68
2023/10/03 00:32:45;;;;;;;37.13;19.13;;;17.80;99.90;;;;;;5059849;28;20463;-68
2023/10/03 00:35:11;;;;;;;38.33;20.27;;;17.80;99.90;;;;;;5069526;28;20040;-69
2023/10/03 00:37:38;;;;;;;37.42;18.92;;;17.80;99.90;;;;;;5066264;28;20044;-69
2023/10/03 00:40:16;;;;;;;35.60;18.85;;;17.80;99.90;;;;;;5076396;28;20490;-68
2023/10/03 00:42:47;;;;;;;36.70;19.30;;;17.70;99.90;;;;;;5057872;28;20029;-68
2023/10/03 00:45:19;;;;;;;36.28;19.00;;;17.80;99.90;;;;;;5075555;28;20032;-68
2023/10/03 00:47:45;;;;;;;;;;;17.80;99.90;;;;;;5060622;28;20403;-68
2023/10/03 00:50:10;;;;;;;38.40;19.33;;;17.70;99.90;;;;;;5065995;28;19916;-68
2023/10/03 00:52:37;;;;;;;36.58;18.85;;;17.80;99.90;;;;;;5059221;28;20051;-68
2023/10/03 00:55:03;;;;;;;37.25;18.52;;;17.80;99.90;;;;;;5059266;28;20115;-68
2023/10/03 00:57:29;;;;;;;37.05;18.60;;;17.80;99.90;;;;;;5067951;28;20408;-68
2023/10/03 00:59:58;;;;;;;38.03;18.13;;;17.80;99.90;;;;;;5056786;28;20037;-68
2023/10/03 01:02:24;;;;;;;32.95;17.52;;;17.70;99.90;;;;;;5065953;28;20142;-69
2023/10/03 01:04:49;;;;;;;31.85;17.13;;;17.80;99.90;;;;;;5066335;28;20470;-68
2023/10/03 01:07:15;;;;;;;40.00;19.48;;;17.80;99.90;;;;;;5069958;28;20036;-68
2023/10/03 01:09:41;;;;;;;35.72;18.27;;;17.80;99.90;;;;;;5067014;28;20044;-68
2023/10/03 01:12:07;;;;;;;36.03;17.83;;;17.70;99.90;;;;;;5066576;28;20102;-68
2023/10/03 01:14:37;;;;;;;38.67;17.65;;;17.70;99.90;;;;;;5059221;28;20329;-68
2023/10/03 01:17:06;;;;;;;35.97;17.15;;;17.70;99.90;;;;;;5069104;28;20044;-68
2023/10/03 01:19:32;;;;;;;36.00;17.50;;;17.70;99.90;;;;;;5061463;28;20048;-68
2023/10/03 01:21:59;;;;;;;35.45;16.88;;;17.70;99.90;;;;;;5067378;28;20519;-68
2023/10/03 01:24:24;;;;;;;34.03;16.48;;;17.80;99.90;;;;;;5060649;28;20376;-68
2023/10/03 01:26:52;;;;;;;38.67;16.92;;;17.70;99.90;;;;;;5059984;28;20035;-68
2023/10/03 01:29:21;;;;;;;37.38;17.63;;;17.80;99.90;;;;;;5058691;28;20041;-67
2023/10/03 01:31:52;;;;;;;34.63;17.00;;;17.70;99.90;;;;;;5065842;28;20075;-68
2023/10/03 01:34:17;;;;;;;36.88;17.80;;;17.70;99.90;;;;;;5068559;28;20044;-68
2023/10/03 01:36:45;;;;;;;37.33;17.27;;;17.70;99.90;;;;;;5062254;28;20029;-68
2023/10/03 01:39:12;;;;;;;34.08;16.85;;;17.70;99.90;;;;;;5064002;28;20053;-68
2023/10/03 01:41:37;;;;;;;35.70;16.95;;;17.70;99.90;;;;;;5076147;28;20048;-68
2023/10/03 01:44:03;;;;;;;35.33;17.52;;;17.80;99.90;;;;;;5072405;28;20043;-68
2023/10/03 01:46:29;;;;;;;34.75;17.15;;;17.70;99.90;;;;;;5077455;28;20040;-68
2023/10/03 01:48:57;;;;;;;34.08;16.45;;;17.70;99.90;;;;;;5067896;28;20033;-68
2023/10/03 01:51:23;;;;;;;35.55;17.23;;;17.70;99.90;;;;;;5069600;28;20067;-68
2023/10/03 01:53:48;;;;;;;36.92;16.75;;;17.70;99.90;;;;;;5064084;28;20555;-68
2023/10/03 01:56:14;;;;;;;36.90;17.30;;;17.70;99.90;;;;;;5061837;28;20127;-69
2023/10/03 01:58:41;;;;;;;36.00;17.17;;;17.70;99.90;;;;;;5072603;28;20068;-68
2023/10/03 02:01:07;;;;;;;38.95;17.40;;;17.70;99.90;;;;;;5075377;28;20093;-68
2023/10/03 02:03:34;;;;;;;35.08;17.13;;;17.70;99.90;;;;;;5071231;28;20063;-68
2023/10/03 02:06:00;;;;;;;36.42;18.27;;;17.70;99.90;;;;;;5057619;28;20041;-68
2023/10/03 02:08:26;;;;;;;37.35;17.73;;;17.60;99.90;;;;;;5070330;28;20051;-68
2023/10/03 02:10:52;;;;;;;32.33;16.77;;;17.70;99.90;;;;;;5065043;28;20033;-68
2023/10/03 02:13:19;;;;;;;36.10;17.67;;;17.70;99.90;;;;;;5072274;28;20123;-68
2023/10/03 02:15:47;;;;;;;32.67;17.73;;;17.60;99.90;;;;;;5062748;28;20037;-68
2023/10/03 02:18:13;;;;;;;38.42;17.55;;;17.60;99.90;;;;;;5058793;28;20040;-68
2023/10/03 02:20:47;;;;;;;36.20;17.65;;;17.60;99.90;;;;;;5063542;28;20111;-68
2023/10/03 02:23:23;;;;;;;33.42;16.52;;;17.60;99.90;;;;;;5068593;28;20398;-68
2023/10/03 02:25:49;;;;;;;33.97;17.25;;;17.60;99.90;;;;;;5073885;28;20051;-68
2023/10/03 02:28:16;;;;;;;38.33;17.25;;;17.60;99.90;;;;;;5063842;28;20083;-68
2023/10/03 02:30:43;;;;;;;35.47;17.25;;;17.60;99.90;;;;;;5059912;28;20068;-68
2023/10/03 02:33:13;;;;;;;36.55;17.48;;;17.60;99.90;;;;;;5062729;28;20391;-68
2023/10/03 02:35:43;;;;;;;36.63;17.02;;;17.50;99.90;;;;;;5067330;28;20047;-68
2023/10/03 02:38:13;;;;;;;35.30;16.77;;;17.50;99.90;;;;;;5065787;28;20123;-68
2023/10/03 02:40:40;;;;;;;35.80;16.33;;;17.40;99.90;;;;;;5071630;28;20060;-68
2023/10/03 02:43:06;;;;;;;41.72;17.58;;;17.50;99.90;;;;;;5069869;28;20071;-68
2023/10/03 02:45:32;;;;;;;38.22;17.10;;;17.50;99.90;;;;;;5071437;28;20094;-68
2023/10/03 02:48:09;;;;;;;35.42;16.50;;;17.50;99.90;;;;;;5071763;28;20527;-68
2023/10/03 02:50:34;;;;;;;39.45;18.23;;;17.50;99.90;;;;;;5063088;28;20036;-68
2023/10/03 02:53:10;;;;;;;38.10;17.17;;;17.50;99.90;;;;;;5062313;28;20044;-68
2023/10/03 02:55:36;;;;;;;41.95;17.70;;;17.50;99.90;;;;;;5069902;28;20046;-68
2023/10/03 02:58:02;;;;;;;32.60;16.13;;;17.50;99.90;;;;;;5065697;28;20040;-68
2023/10/03 03:00:27;;;;;;;36.25;17.25;;;17.50;99.90;;;;;;5064598;28;20039;-68
2023/10/03 03:02:54;;;;;;;34.92;16.75;;;17.60;99.90;;;;;;5065625;28;20506;-68
2023/10/03 03:05:23;;;;;;;41.13;17.77;;;17.60;99.90;;;;;;5068771;28;20036;-68
2023/10/03 03:07:49;;;;;;;38.35;16.70;;;17.60;99.90;;;;;;5067204;28;20036;-68
2023/10/03 03:10:17;;;;;;;33.97;15.90;;;17.70;99.90;;;;;;5071666;28;20471;-68
2023/10/03 03:12:46;;;;;;;32.25;15.98;;;17.70;99.90;;;;;;5062420;28;20058;-68
2023/10/03 03:15:21;;;;;;;33.20;16.33;;;17.70;99.90;;;;;;5071013;28;20039;-68
2023/10/03 03:17:48;;;;;;;37.42;16.60;;;17.70;99.90;;;;;;5063456;28;20550;-68
2023/10/03 03:20:27;;;;;;;36.80;16.75;;;17.70;99.90;;;;;;5071312;28;20041;-68
2023/10/03 03:22:57;;;;;;;40.28;17.70;;;17.70;99.90;;;;;;5071066;28;20037;-69
2023/10/03 03:25:36;;;;;;;33.05;16.05;;;17.70;99.90;;;;;;5068988;28;20037;-68
2023/10/03 03:28:12;;;;;;;37.38;16.77;;;17.80;99.90;;;;;;5071038;28;20090;-68
2023/10/03 03:30:45;;;;;;;38.90;16.63;;;17.80;99.90;;;;;;5054163;28;20048;-68
2023/10/03 03:33:12;;;;;;;36.72;17.00;;;17.70;99.90;;;;;;5067090;28;20068;-68
2023/10/03 03:35:38;;;;;;;34.50;16.50;;;17.70;99.90;;;;;;5063885;28;20107;-68
2023/10/03 03:38:05;;;;;;;35.20;15.13;;;17.70;99.90;;;;;;5071218;28;20058;-68
2023/10/03 03:40:34;;;;;;;32.40;16.25;;;17.70;99.90;;;;;;5062268;28;20032;-68
2023/10/03 03:43:00;;;;;;;32.50;14.65;;;17.70;99.90;;;;;;5065785;28;20463;-68
2023/10/03 03:45:26;;;;;;;33.95;16.25;;;17.70;99.90;;;;;;5062310;28;20036;-69
2023/10/03 03:47:55;;;;;;;37.13;15.55;;;17.70;99.90;;;;;;5075032;28;20029;-68
2023/10/03 03:50:22;;;;;;;33.45;16.05;;;17.80;99.90;;;;;;5062102;28;20127;-68
2023/10/03 03:52:51;;;;;;;33.92;15.82;;;17.70;99.90;;;;;;5070295;28;20454;-68
2023/10/03 03:55:17;;;;;;;34.38;15.38;;;17.80;99.90;;;;;;5056829;28;20535;-68
2023/10/03 03:57:46;;;;;;;36.72;16.25;;;17.80;99.90;;;;;;5068979;28;20112;-68
2023/10/03 04:00:17;;;;;;;37.60;16.17;;;17.70;99.90;;;;;;5070658;28;20045;-68
2023/10/03 04:02:43;;;;;;;35.08;15.15;;;17.80;99.90;;;;;;5062134;28;20037;-69
2023/10/03 04:05:12;;;;;;;31.42;15.50;;;17.80;99.90;;;;;;5067471;28;20055;-68
2023/10/03 04:07:38;;;;;;;35.25;16.27;;;17.80;99.90;;;;;;5056300;28;20341;-68
2023/10/03 04:10:09;;;;;;;36.40;16.30;;;17.90;99.90;;;;;;5062116;28;20618;-68
2023/10/03 04:12:41;;;;;;;32.63;15.30;;;17.90;99.90;;;;;;5055020;28;20049;-69
2023/10/03 04:15:11;;;;;;;;;;;17.90;99.90;;;;;;5064667;28;20511;-68
2023/10/03 04:17:37;;;;;;;36.30;16.20;;;17.90;99.90;;;;;;5069622;28;20275;-68
2023/10/03 04:20:14;;;;;;;34.10;14.70;;;17.90;99.90;;;;;;5064789;28;20048;-68
2023/10/03 04:22:41;;;;;;;31.13;14.90;;;17.90;99.90;;;;;;5057414;28;20056;-68
2023/10/03 04:25:12;;;;;;;36.40;15.70;;;17.90;99.90;;;;;;5066192;28;20040;-68
2023/10/03 04:27:38;;;;;;;33.30;14.40;;;17.90;99.90;;;;;;5069929;28;20120;-69
2023/10/03 04:30:05;;;;;;;33.20;15.25;;;17.90;99.90;;;;;;5060788;28;20067;-68
2023/10/03 04:32:32;;;;;;;30.58;14.95;;;17.90;99.90;;;;;;5061486;28;20041;-68
2023/10/03 04:34:57;;;;;;;33.20;15.20;;;17.90;99.90;;;;;;5067033;28;20083;-69
2023/10/03 04:37:23;;;;;;;32.78;14.60;;;18.00;99.90;;;;;;5072075;28;20497;-68
2023/10/03 04:39:49;;;;;;;30.20;14.75;;;17.90;99.90;;;;;;5068781;28;20048;-68
2023/10/03 04:42:14;;;;;;;26.55;13.90;;;18.00;99.90;;;;;;5064774;28;20501;-68
2023/10/03 04:44:40;;;;;;;31.63;13.82;;;18.00;99.90;;;;;;5059863;28;20047;-68
2023/10/03 04:47:09;;;;;;;28.13;13.23;;;18.00;99.90;;;;;;5056500;28;20048;-68
2023/10/03 04:49:35;;;;;;;30.77;13.77;;;18.10;99.90;;;;;;5061717;28;20036;-68
2023/10/03 04:52:00;;;;;;;25.20;12.43;;;18.20;99.90;;;;;;5065662;28;20072;-67
2023/10/03 04:54:26;;;;;;;25.65;11.82;;;18.30;99.90;;;;;;5066941;28;20116;-68
2023/10/03 04:56:51;;;;;;;27.73;12.05;;;18.40;99.90;;;;;;5057291;28;20044;-68
2023/10/03 04:59:19;;;;;;;26.38;12.32;;;18.50;99.90;;;;;;5064075;28;20403;-68
2023/10/03 05:01:44;;;;;;;25.58;11.68;;;18.60;99.90;;;;;;5063401;28;20047;-68
2023/10/03 05:04:12;;;;;;;27.15;11.77;;;18.70;99.90;;;;;;5064508;28;20734;-68
2023/10/03 05:06:37;;;;;;;26.45;12.05;;;18.60;99.90;;;;;;5061498;28;20496;-68
2023/10/03 05:09:04;;;;;;;25.35;12.43;;;18.70;99.90;;;;;;5055929;28;20033;-68
2023/10/03 05:11:30;;;;;;;25.00;12.20;;;18.70;99.90;;;;;;5062932;28;20499;-68
2023/10/03 05:13:55;;;;;;;27.27;12.00;;;18.80;99.90;;;;;;5058364;28;20048;-68
2023/10/03 05:16:21;;;;;;;25.25;11.55;;;18.80;99.90;;;;;;5072675;28;20119;-68
2023/10/03 05:18:47;;;;;;;24.95;11.45;;;18.80;99.90;;;;;;5068584;28;20044;-69
2023/10/03 05:21:13;;;;;;;26.52;11.02;;;18.80;99.90;;;;;;5059679;28;20487;-68
2023/10/03 05:23:41;;;;;;;20.15;9.98;;;18.90;99.90;;;;;;5067233;28;20041;-68
2023/10/03 05:26:07;;;;;;;25.15;10.70;;;18.90;99.90;;;;;;5062382;28;20052;-68
2023/10/03 05:28:37;;;;;;;22.33;11.13;;;18.90;99.90;;;;;;5061843;28;20044;-68
2023/10/03 05:31:03;;;;;;;26.02;11.13;;;18.80;99.90;;;;;;5067628;28;20089;-68
2023/10/03 05:33:28;;;;;;;24.17;10.57;;;18.90;99.90;;;;;;5055623;28;20040;-68
2023/10/03 05:35:54;;;;;;;27.60;11.57;;;18.90;99.90;;;;;;5067313;28;20069;-68
2023/10/03 05:38:20;;;;;;;24.02;10.18;;;18.80;99.90;;;;;;5063930;28;20044;-69
2023/10/03 05:40:47;;;;;;;22.73;9.57;;;18.80;99.90;;;;;;5070964;28;20090;-69
2023/10/03 05:43:12;;;;;;;23.77;10.10;;;18.80;99.90;;;;;;5073052;28;20044;-69
2023/10/03 05:45:39;;;;;;;22.98;9.68;;;18.90;99.90;;;;;;5070367;28;20036;-68
2023/10/03 05:48:05;;;;;;;26.50;9.90;;;18.80;99.90;;;;;;5070294;28;20621;-68
2023/10/03 05:50:31;;;;;;;22.80;10.15;;;18.90;99.90;;;;;;5065087;28;20044;-68
2023/10/03 05:52:57;;;;;;;25.40;9.18;;;18.90;99.90;;;;;;5070151;28;20052;-68
2023/10/03 05:55:22;;;;;;;23.45;10.73;;;18.80;99.90;;;;;;5061279;28;20036;-68
2023/10/03 05:57:48;;;;;;;23.77;9.18;;;18.90;99.90;;;;;;5069571;28;20044;-69
2023/10/03 06:00:18;;;;;;;23.65;9.60;;;18.80;99.90;;;;;;5073522;28;20032;-68
2023/10/03 06:02:47;;;;;;;21.48;8.38;;;18.80;99.90;;;;;;5064083;28;20403;-68
2023/10/03 06:05:12;;;;;;;19.40;8.05;;;18.90;99.90;;;;;;5062564;28;20387;-68
2023/10/03 06:07:38;;;;;;;18.55;7.45;;;18.80;99.90;;;;;;5061339;28;20036;-68
2023/10/03 06:10:04;;;;;;;18.20;6.60;;;18.80;99.90;;;;;;5068508;28;20372;-68
2023/10/03 06:12:33;;;;;;;19.95;6.05;;;18.80;99.90;;;;;;5067212;28;20044;-68
2023/10/03 06:14:59;;;;;;;18.15;5.72;;;18.90;99.90;;;;;;5064839;28;20032;-68
2023/10/03 06:17:24;;;;;;;15.85;5.90;;;18.80;99.90;;;;;;5069930;28;20036;-68
2023/10/03 06:19:53;;;;;;;16.67;5.70;;;18.80;99.90;;;;;;5067204;28;20090;-68
2023/10/03 06:22:18;;;;;;;17.00;5.50;;;18.80;99.90;;;;;;5061322;28;20047;-68
2023/10/03 06:24:45;;;;;;;17.48;5.47;;;18.80;99.90;;;;;;5062984;28;20461;-68
2023/10/03 06:27:11;;;;;;;17.90;6.10;;;18.80;99.90;;;;;;5060210;28;20044;-69
2023/10/03 06:29:38;;;;;;;18.35;5.78;;;18.70;99.90;;;;;;5057829;28;20037;-69
2023/10/03 06:32:04;;;;;;;18.33;6.15;;;18.70;99.90;;;;;;5046979;28;20112;-69
2023/10/03 06:34:30;;;;;;;17.83;5.38;;;18.70;99.90;;;;;;5065407;28;20124;-69
2023/10/03 06:36:56;;;;;;;18.33;6.07;;;18.70;99.90;;;;;;5062461;28;20072;-69
2023/10/03 06:39:21;;;;;;;21.45;7.28;;;18.70;99.90;;;;;;5066977;28;20491;-69
2023/10/03 06:41:47;;;;;;;18.42;6.07;;;18.60;99.90;;;;;;5066391;28;20036;-69
2023/10/03 06:44:13;;;;;;;19.30;6.00;;;18.60;99.90;;;;;;5065420;28;20071;-69
2023/10/03 06:46:41;;;;;;;17.00;5.57;;;18.60;99.90;;;;;;5073380;28;20110;-69
2023/10/03 06:49:08;;;;;;;17.55;5.65;;;18.60;99.90;;;;;;5069012;28;20111;-69
2023/10/03 06:51:33;;;;;;;14.02;5.80;;;18.60;99.90;;;;;;5068121;28;20525;-69
2023/10/03 06:53:59;;;;;;;17.33;6.25;;;18.60;99.90;;;;;;5061616;28;20041;-68
2023/10/03 06:56:26;;;;;;;15.05;5.38;;;18.50;99.90;;;;;;5061882;28;20620;-69
2023/10/03 06:58:52;;;;;;;16.90;5.60;;;18.50;99.90;;;;;;5060123;28;20514;-69
2023/10/03 07:01:17;;;;;;;19.40;6.20;;;18.60;99.90;;;;;;5062665;28;20029;-69
2023/10/03 07:03:43;;;;;;;14.90;5.72;;;18.60;99.90;;;;;;5065034;28;20029;-69
2023/10/03 07:06:09;;;;;;;15.07;4.75;;;18.60;99.90;;;;;;5066015;28;20403;-69
2023/10/03 07:08:35;;;;;;;18.27;5.45;;;18.50;99.90;;;;;;5058812;28;20036;-69
2023/10/03 07:11:01;;;;;;;14.68;5.68;;;18.50;99.90;;;;;;5066110;28;20045;-69
2023/10/03 07:13:27;;;;;;;12.13;4.90;;;18.60;99.90;;;;;;5058880;28;20035;-69
2023/10/03 07:15:57;;;;;;;14.48;5.00;;;18.60;99.90;;;;;;5064752;28;20032;-69
2023/10/03 07:18:23;;;;;;;12.35;5.25;;;18.60;99.90;;;;;;5066026;28;20051;-69
2023/10/03 07:20:49;;;;;;;13.45;4.82;;;18.60;99.90;;;;;;5065695;28;20036;-69
2023/10/03 07:23:15;;;;;;;12.20;5.40;;;18.60;99.90;;;;;;5067774;28;20040;-68
2023/10/03 07:25:41;;;;;;;14.65;5.47;;;18.50;99.90;;;;;;5060371;28;20043;-68
2023/10/03 07:28:07;;;;;;;21.17;5.20;;;18.50;99.90;;;;;;5062047;28;20695;-68
2023/10/03 07:30:33;;;;;;;12.15;4.97;;;18.40;99.90;;;;;;5063281;28;20032;-68
2023/10/03 07:32:59;;;;;;;17.13;5.75;;;18.40;99.90;;;;;;5061873;28;20056;-68
2023/10/03 07:35:25;;;;;;;13.85;5.28;;;18.30;99.90;;;;;;5061220;28;20077;-68
2023/10/03 07:37:51;;;;;;;11.65;5.10;;;18.30;99.90;;;;;;5053776;28;20036;-68
2023/10/03 07:40:21;;;;;;;12.90;5.80;;;18.30;99.90;;;;;;5063487;28;20094;-68
2023/10/03 07:42:47;;;;;;;17.65;5.88;;;18.20;99.90;;;;;;5059580;28;20037;-68
2023/10/03 07:45:13;;;;;;;18.35;5.80;;;18.20;99.90;;;;;;5063841;28;20134;-68
2023/10/03 07:47:41;;;;;;;16.30;5.25;;;18.20;99.90;;;;;;5062350;28;20044;-68
2023/10/03 07:50:07;;;;;;;12.50;5.10;;;18.20;99.90;;;;;;5064161;28;20436;-68
2023/10/03 07:52:34;;;;;;;16.63;5.22;;;18.20;99.90;;;;;;5059466;28;20064;-68
2023/10/03 07:55:00;;;;;;;13.93;4.75;;;18.30;99.90;;;;;;5069138;28;20415;-68
2023/10/03 07:57:26;;;;;;;11.85;4.82;;;18.20;99.90;;;;;;5062945;28;20041;-68
2023/10/03 07:59:52;;;;;;;11.30;5.20;;;18.20;99.90;;;;;;5066450;28;20102;-68
2023/10/03 08:02:18;;;;;;;16.55;4.80;;;18.20;99.90;;;;;;5069025;28;20199;-69
2023/10/03 08:04:46;;;;;;;14.45;5.93;;;18.20;99.90;;;;;;5066171;28;20360;-70
2023/10/03 08:07:21;;;;;;;13.50;4.90;;;18.20;99.90;;;;;;5067105;28;20621;-70
2023/10/03 08:09:51;;;;;;;15.50;5.22;;;18.10;99.90;;;;;;5067366;28;20066;-69
2023/10/03 08:12:23;;;;;;;12.07;4.90;;;18.00;99.90;;;;;;5062096;28;20037;-69
2023/10/03 08:14:52;;;;;;;12.93;4.72;;;17.90;99.90;;;;;;5064363;28;20040;-69
2023/10/03 08:17:19;;;;;;;11.95;4.65;;;17.80;99.90;;;;;;5061844;28;20044;-69
2023/10/03 08:19:45;;;;;;;9.48;3.80;;;17.80;99.90;;;;;;5065944;28;20098;-69
2023/10/03 08:22:12;;;;;;;12.05;4.03;;;17.70;99.90;;;;;;5065225;28;20052;-68
2023/10/03 08:24:43;;;;;;;12.07;4.45;;;17.60;99.90;;;;;;5065721;28;20068;-68
2023/10/03 08:27:18;;;;;;;13.50;3.58;;;17.70;99.90;;;;;;5066877;28;20498;-68
2023/10/03 08:29:50;;;;;;;13.90;4.70;;;17.70;99.90;;;;;;5061017;28;20090;-68
2023/10/03 08:32:16;;;;;;;13.13;4.72;;;17.70;99.90;;;;;;5067156;28;20119;-68
2023/10/03 08:34:44;;;;;;;10.60;4.15;;;17.70;99.90;;;;;;5065137;28;20032;-68
2023/10/03 08:37:18;;;;;;;15.40;4.10;;;17.70;99.90;;;;;;5060759;28;20051;-68
2023/10/03 08:39:51;;;;;;;12.63;3.67;;;17.60;99.90;;;;;;5061495;28;20383;-69
2023/10/03 08:42:18;;;;;;;9.93;3.67;;;17.60;99.90;;;;;;5061010;28;20032;-69
2023/10/03 08:44:52;;;;;;;10.70;3.30;;;17.50;99.90;;;;;;5057326;28;20487;-69
2023/10/03 08:47:28;;;;;;;12.13;3.45;;;17.50;99.90;;;;;;5064973;28;20033;-69
2023/10/03 08:50:01;;;;;;;9.30;2.47;;;17.50;99.90;;;;;;5057671;28;20094;-69
2023/10/03 08:52:39;;;;;;;12.88;3.45;;;17.50;99.90;;;;;;5066311;28;20036;-69
2023/10/03 08:55:09;;;;;;;11.90;2.47;;;17.50;99.90;;;;;;5068177;28;20040;-69
2023/10/03 08:57:40;;;;;;;10.07;2.60;;;17.50;99.90;;;;;;5067215;28;20107;-69
2023/10/03 09:00:08;;;;;;;8.50;2.30;;;17.50;99.90;;;;;;5065398;28;20037;-69
2023/10/03 09:02:45;;;;;;;8.52;2.30;;;17.50;99.90;;;;;;5065702;28;20082;-69
2023/10/03 09:05:22;;;;;;;8.88;2.10;;;17.40;99.90;;;;;;5054517;28;20037;-69
2023/10/03 09:07:49;;;;;;;6.53;2.20;;;17.40;99.90;;;;;;5065753;28;20041;-69
2023/10/03 09:10:22;;;;;;;9.07;2.00;;;17.30;99.90;;;;;;5067336;28;20069;-69
2023/10/03 09:13:07;;;;;;;7.30;1.65;;;17.30;99.90;;;;;;5067119;28;20039;-69
2023/10/03 09:15:42;;;;;;;6.40;1.30;;;17.20;99.90;;;;;;5067767;28;20071;-69
2023/10/03 09:18:10;;;;;;;5.90;1.50;;;17.20;99.90;;;;;;5064577;28;20048;-68
2023/10/03 09:20:36;;;;;;;4.18;1.10;;;17.20;99.90;;;;;;5063923;28;20047;-68
2023/10/03 09:23:05;;;;;;;8.35;1.60;;;17.10;99.90;;;;;;5063036;28;20272;-69
2023/10/03 09:25:33;;;;;;;7.35;1.38;;;17.10;99.90;;;;;;5057988;28;20068;-69
2023/10/03 09:28:07;;;;;;;5.40;1.05;;;17.10;99.90;;;;;;5060724;28;20090;-69
2023/10/03 09:30:39;;;;;;;6.90;1.00;;;17.00;99.90;;;;;;5059158;28;20517;-70
2023/10/03 09:33:11;;;;;;;8.15;1.42;;;16.90;99.90;;;;;;5058981;28;20361;-69
2023/10/03 09:35:40;;;;;;;5.60;1.23;;;16.90;99.90;;;;;;5058067;28;20106;-68
2023/10/03 09:38:08;;;;;;;6.47;1.65;;;16.80;99.90;;;;;;5063207;28;20081;-68
2023/10/03 09:40:48;;;;;;;3.92;1.25;;;16.80;99.90;;;;;;5060518;28;20517;-68
2023/10/03 09:43:16;;;;;;;4.78;0.90;;;16.80;99.90;;;;;;5060559;28;20071;-68
2023/10/03 09:45:45;;;;;;;5.53;1.05;;;16.70;99.90;;;;;;5064698;28;20434;-68
2023/10/03 09:48:12;;;;;;;4.50;0.85;;;16.70;99.90;;;;;;5066501;28;20044;-68
2023/10/03 09:50:43;;;;;;;2.70;0.90;;;16.70;99.90;;;;;;5072087;28;20055;-68
2023/10/03 09:53:15;;;;;;;3.85;0.65;;;16.70;99.90;;;;;;5067911;28;20040;-68
2023/10/03 09:55:46;;;;;;;2.92;0.60;;;16.80;99.90;;;;;;5056553;28;20044;-68
2023/10/03 09:58:24;;;;;;;5.47;0.93;;;16.80;99.90;;;;;;5058867;28;20040;-68
2023/10/03 10:00:54;;;;;;;6.03;0.90;;;16.90;99.90;;;;;;5067905;28;20048;-68
2023/10/03 10:03:27;;;;;;;4.88;0.90;;;16.90;99.90;;;;;;5073065;28;20037;-69
2023/10/03 10:06:22;;;;;;;3.30;0.60;;;16.90;99.90;;;;;;5059319;28;20025;-69
2023/10/03 10:09:01;;;;;;;3.60;0.82;;;16.90;99.90;;;;;;5061621;28;20041;-69
2023/10/03 10:11:29;;;;;;;3.85;1.00;;;16.90;99.90;;;;;;5067658;28;20475;-69
2023/10/03 10:14:09;;;;;;;4.70;0.93;;;16.90;99.90;;;;;;5065363;28;20670;-69
2023/10/03 10:16:58;;;;;;;2.72;0.63;;;16.90;99.90;;;;;;5065874;28;20150;-69
2023/10/03 10:19:25;;;;;;;4.25;1.02;;;16.90;99.90;;;;;;5064677;28;20044;-69
2023/10/03 10:21:59;;;;;;;7.85;1.05;;;16.80;99.90;;;;;;5067672;28;20044;-69
2023/10/03 10:24:25;;;;;;;3.15;0.90;;;16.80;99.90;;;;;;5067435;28;20164;-69
2023/10/03 10:26:52;;;;;;;2.40;0.80;;;16.80;99.90;;;;;;5062820;28;20036;-69
2023/10/03 10:29:19;;;;;;;7.68;1.10;;;16.70;99.90;;;;;;5067251;28;20033;-69
2023/10/03 10:31:57;;;;;;;4.63;1.02;;;16.70;99.90;;;;;;5066603;28;20036;-70
2023/10/03 10:34:40;;;;;;;2.70;0.85;;;16.70;99.90;;;;;;5072201;28;20364;-69
2023/10/03 10:37:09;;;;;;;2.80;0.80;;;16.60;99.90;;;;;;5067860;28;20040;-69
2023/10/03 10:39:54;;;;;;;4.60;1.08;;;16.60;99.90;;;;;;5069498;28;20048;-69
2023/10/03 10:42:29;;;;;;;4.25;1.08;;;16.60;99.90;;;;;;5066725;28;20036;-69
2023/10/03 10:45:04;;;;;;;5.82;0.90;;;16.60;99.90;;;;;;5064000;28;20135;-69
2023/10/03 10:47:43;;;;;;;7.68;1.58;;;16.60;99.90;;;;;;5064043;28;20433;-69
2023/10/03 10:50:09;;;;;;;3.97;1.05;;;16.50;99.90;;;;;;5067900;28;20036;-69
2023/10/03 10:52:56;;;;;;;5.88;1.50;;;16.50;99.90;;;;;;5065495;28;20082;-69
2023/10/03 10:55:23;;;;;;;8.35;1.20;;;16.50;99.90;;;;;;5063408;28;20068;-69
2023/10/03 10:58:01;;;;;;;2.63;1.02;;;16.50;99.90;;;;;;5066638;28;20550;-69
2023/10/03 11:00:27;;;;;;;7.15;1.15;;;16.40;99.90;;;;;;5063800;28;20090;-69
2023/10/03 11:02:52;;;;;;;4.82;1.30;;;16.40;99.90;;;;;;5061420;28;20045;-69
2023/10/03 11:05:18;;;;;;;6.13;1.23;;;16.40;99.90;;;;;;5063736;28;20124;-69
2023/10/03 11:07:49;;;;;;;5.07;1.50;;;16.50;99.90;;;;;;5066078;28;20033;-69
2023/10/03 11:10:17;;;;;;;3.97;1.25;;;16.50;99.90;;;;;;5067191;28;20032;-69
2023/10/03 11:12:42;;;;;;;3.75;1.17;;;16.50;99.90;;;;;;5059813;28;20044;-69
2023/10/03 11:15:15;;;;;;;3.92;0.88;;;16.50;99.90;;;;;;5064277;28;20040;-68
2023/10/03 11:17:48;;;;;;;4.32;0.98;;;16.50;99.90;;;;;;5061943;28;20048;-69
2023/10/03 11:20:16;;;;;;;4.15;1.10;;;16.50;99.90;;;;;;5061520;28;20043;-69
2023/10/03 11:22:43;;;;;;;2.08;0.98;;;16.50;99.90;;;;;;5062178;28;20054;-69
2023/10/03 11:25:10;;;;;;;3.28;1.02;;;16.60;99.90;;;;;;5060147;28;20182;-69
2023/10/03 11:27:36;;;;;;;4.15;1.10;;;16.60;99.90;;;;;;5064028;28;20363;-69
2023/10/03 11:30:16;;;;;;;3.83;1.00;;;16.50;99.90;;;;;;5072261;28;20323;-69
2023/10/03 11:32:43;;;;;;;5.15;1.02;;;16.50;99.90;;;;;;5059415;28;20113;-69
2023/10/03 11:35:16;;;;;;;6.78;1.38;;;16.40;99.90;;;;;;5068228;28;20041;-69
2023/10/03 11:37:44;;;;;;;5.10;1.20;;;16.30;99.90;;;;;;5062366;28;20129;-69
2023/10/03 11:40:13;;;;;;;7.13;1.40;;;16.30;99.90;;;;;;5058608;28;20044;-69
2023/10/03 11:42:58;;;;;;;7.28;1.60;;;16.20;99.90;;;;;;5067552;28;20033;-69
2023/10/03 11:45:29;;;;;;;7.07;1.65;;;16.10;99.90;;;;;;5065095;28;20087;-69
2023/10/03 11:48:02;;;;;;;5.05;1.35;;;16.00;99.90;;;;;;5065457;28;20154;-69
2023/10/03 11:50:29;;;;;;;5.32;1.65;;;16.00;99.90;;;;;;5066660;28;20128;-69
2023/10/03 11:52:59;;;;;;;5.82;1.58;;;15.90;99.90;;;;;;5058312;28;20471;-69
2023/10/03 11:55:31;;;;;;;4.63;1.73;;;15.90;99.90;;;;;;5066050;28;20044;-68
2023/10/03 11:57:58;;;;;;;10.27;2.20;;;16.00;99.90;;;;;;5064144;28;20047;-68
2023/10/03 12:00:24;;;;;;;6.15;2.00;;;16.00;99.90;;;;;;5063134;28;20137;-68
2023/10/03 12:02:51;;;;;;;5.07;1.85;;;16.00;99.90;;;;;;5071213;28;20036;-68
2023/10/03 12:05:17;;;;;;;7.38;1.92;;;16.10;99.90;;;;;;5063646;28;20037;-68
2023/10/03 12:07:47;;;;;;;8.82;2.00;;;16.20;99.90;;;;;;5062681;28;20121;-68
2023/10/03 12:10:14;;;;;;;8.52;2.10;;;16.20;99.90;;;;;;5065815;28;20036;-68
2023/10/03 12:12:40;;;;;;;7.40;1.95;;;16.30;99.90;;;;;;5067157;28;20117;-68
2023/10/03 12:15:13;;;;;;;4.65;2.05;;;16.30;99.90;;;;;;5056763;28;20403;-68
2023/10/03 12:17:43;;;;;;;6.78;2.45;;;16.30;99.90;;;;;;5075517;28;20143;-68
2023/10/03 12:20:13;;;;;;;7.50;1.95;;;16.40;99.90;;;;;;5066826;28;20138;-68
2023/10/03 12:22:43;;;;;;;6.07;2.20;;;16.40;99.90;;;;;;5066119;28;20041;-68
2023/10/03 12:25:13;;;;;;;6.55;2.35;;;16.40;99.90;;;;;;5065856;28;20039;-68
2023/10/03 12:27:41;;;;;;;7.75;1.88;;;16.40;99.90;;;;;;5064667;28;20035;-69
2023/10/03 12:30:10;;;;;;;6.03;1.95;;;16.40;99.90;;;;;;5064737;28;20178;-69
2023/10/03 12:32:46;;;;;;;8.13;2.63;;;16.40;99.90;;;;;;5063286;28;20110;-69
2023/10/03 12:35:13;;;;;;;10.25;2.55;;;16.40;99.90;;;;;;5064298;28;20040;-69
2023/10/03 12:37:41;;;;;;;10.23;2.70;;;16.40;99.90;;;;;;5062841;28;20048;-69
2023/10/03 12:40:16;;;;;;;7.32;2.40;;;16.40;99.90;;;;;;5066141;28;20048;-69
2023/10/03 12:42:50;;;;;;;7.25;2.42;;;16.40;99.90;;;;;;5060409;28;20051;-69